Zurs, Austria
Current Conditions -  °F | °C
As of 12:55 PM on Monday 20 Oct 2014 (Local Time) from LIVE Reporting Station
Clear Clear  
Wind Chill: 59°   Ceiling: Unl
Heat Index: 59°   Visibility: 6mi
Dew Point: 43°   Wind: 7mph
Humidity: 55%   Direction: 10°N
Pressure: 30.3"   Gusts: NA
Location:  47.17°N, 10.17°E
Report Text: LIVE 201055Z 01006KT CAVOK 15/06 Q1026 RMK BKN SCT090 SCT180 VIS MIN 9999
Loading
Personal Weather Stations






























Interactive Weather Map
Tropical Storm Tracking
New forecast layout! Learn more

10-Day Weather Forecast

Advertisements
Track Severe Weather on mobile